Time;durP1;ratioP1;P1;durP2;ratioP2;P2;SDS_P1;SDS_P2;PMS_P1;PMS_P2;Temp;Humidity;BMP_temperature;BMP_pressure;BME280_temperature;BME280_humidity;BME280_pressure;Samples;Min_cycle;Max_cycle;Signal;HPM_P1;HPM_P2
2021/11/17 02:28:34;;;;;;;0.40;0.40;;;6.10;99.90;;;;;;4344238;32;20064;-65
2021/11/17 02:31:54;;;;;;;1.15;1.10;;;6.20;99.90;;;;;;4348518;32;20091;-66
2021/11/17 02:35:06;;;;;;;0.43;0.43;;;6.10;99.90;;;;;;4356624;32;20047;-66
2021/11/17 02:38:35;;;;;;;2.97;1.40;;;6.10;99.90;;;;;;4350583;32;20200;-66
2021/11/17 02:41:59;;;;;;;0.47;0.47;;;6.10;99.90;;;;;;4360584;32;20080;-66
2021/11/17 02:45:27;;;;;;;2.10;1.15;;;6.20;99.90;;;;;;4358347;32;20080;-67
2021/11/17 02:48:15;;;;;;;0.77;0.77;;;6.10;99.90;;;;;;4358698;32;20075;-66
2021/11/17 02:51:26;;;;;;;2.70;1.42;;;6.10;99.90;;;;;;4348277;32;20066;-66
2021/11/17 02:54:49;;;;;;;0.60;0.57;;;6.00;99.90;;;;;;4349261;32;20093;-65
2021/11/17 02:57:26;;;;;;;0.93;0.90;;;5.90;99.90;;;;;;4357864;32;20513;-66
2021/11/17 03:00:20;;;;;;;0.75;0.75;;;6.00;99.90;;;;;;4358820;32;20055;-66
2021/11/17 03:03:14;;;;;;;0.50;0.50;;;5.90;99.90;;;;;;4356815;32;20130;-67
2021/11/17 03:06:25;;;;;;;0.82;0.70;;;5.80;99.90;;;;;;4360487;32;20187;-66
2021/11/17 03:09:20;;;;;;;0.55;0.55;;;5.80;99.90;;;;;;4349513;32;20087;-66
2021/11/17 03:12:26;;;;;;;2.28;0.90;;;5.80;99.90;;;;;;4357362;32;20571;-66
2021/11/17 03:15:29;;;;;;;1.75;1.00;;;5.90;99.90;;;;;;4340253;32;20186;-66
2021/11/17 03:18:41;;;;;;;0.70;0.70;;;5.90;99.90;;;;;;4358435;32;20087;-66
2021/11/17 03:22:02;;;;;;;0.60;0.60;;;5.80;99.90;;;;;;4355994;32;20517;-66
2021/11/17 03:25:01;;;;;;;;;;;5.90;99.90;;;;;;4358454;32;20074;-67
2021/11/17 03:28:20;;;;;;;0.30;0.30;;;6.00;99.90;;;;;;4361727;32;19982;-66
2021/11/17 03:31:40;;;;;;;0.82;0.82;;;6.10;99.90;;;;;;4357009;32;20056;-66
2021/11/17 03:34:42;;;;;;;0.40;0.40;;;6.00;99.90;;;;;;4361938;32;20131;-66
2021/11/17 03:37:48;;;;;;;5.22;1.23;;;6.00;99.90;;;;;;4346881;32;20075;-66
2021/11/17 03:40:45;;;;;;;1.85;0.93;;;6.00;99.90;;;;;;4351405;32;20161;-66
2021/11/17 03:43:58;;;;;;;0.55;0.55;;;5.90;99.90;;;;;;4356212;32;20552;-65
2021/11/17 03:46:34;;;;;;;0.77;0.77;;;5.80;99.90;;;;;;4350606;32;20058;-67
2021/11/17 03:49:47;;;;;;;1.55;0.73;;;5.80;99.90;;;;;;4359785;32;20083;-67
2021/11/17 03:53:14;;;;;;;1.77;1.10;;;5.90;99.90;;;;;;4358656;32;20082;-66
2021/11/17 03:56:01;;;;;;;0.82;0.82;;;6.00;99.90;;;;;;4356645;32;20178;-66
2021/11/17 03:59:02;;;;;;;0.50;0.50;;;6.00;99.90;;;;;;4343870;32;20082;-66
2021/11/17 04:02:16;;;;;;;0.80;0.80;;;5.90;99.90;;;;;;4357624;32;20078;-66
2021/11/17 04:05:30;;;;;;;0.55;0.55;;;6.00;99.90;;;;;;4356719;32;20063;-66
2021/11/17 04:08:28;;;;;;;0.55;0.55;;;5.80;99.90;;;;;;4355025;32;20135;-67
2021/11/17 04:11:23;;;;;;;2.45;1.30;;;5.80;99.90;;;;;;4361991;32;20062;-66
2021/11/17 04:14:43;;;;;;;0.43;0.43;;;5.70;99.90;;;;;;4359865;32;20465;-66
2021/11/17 04:17:55;;;;;;;0.57;0.57;;;5.80;99.90;;;;;;4362874;32;20070;-66
2021/11/17 04:21:28;;;;;;;0.37;0.37;;;5.80;99.90;;;;;;4358475;32;20047;-66
2021/11/17 04:24:34;;;;;;;0.30;0.30;;;5.70;99.90;;;;;;4358479;32;20112;-66
2021/11/17 04:28:03;;;;;;;0.75;0.75;;;5.60;99.90;;;;;;4339252;32;20103;-66
2021/11/17 04:30:49;;;;;;;0.35;0.35;;;5.70;99.90;;;;;;4358690;32;20477;-66
2021/11/17 04:34:11;;;;;;;1.10;0.82;;;5.60;99.90;;;;;;4351335;32;83620;-66
2021/11/17 04:37:23;;;;;;;0.47;0.47;;;5.60;99.90;;;;;;4360662;32;20476;-66
2021/11/17 04:40:45;;;;;;;0.55;0.55;;;5.60;99.90;;;;;;4350919;32;20517;-66
2021/11/17 04:44:03;;;;;;;0.40;0.40;;;5.70;99.90;;;;;;4356192;32;20096;-67
2021/11/17 04:47:23;;;;;;;2.35;1.02;;;5.70;99.90;;;;;;4358595;32;20071;-66
2021/11/17 04:50:17;;;;;;;1.75;0.70;;;5.60;99.90;;;;;;4360835;32;20575;-66
2021/11/17 04:53:22;;;;;;;0.40;0.40;;;5.60;99.90;;;;;;4357744;32;20064;-66
2021/11/17 04:56:09;;;;;;;2.28;1.35;;;5.60;99.90;;;;;;4345066;32;20074;-66
2021/11/17 04:59:24;;;;;;;0.60;0.60;;;5.60;99.90;;;;;;4349167;32;20091;-66
2021/11/17 05:02:43;;;;;;;0.85;0.85;;;5.70;99.90;;;;;;4354645;32;20079;-66
2021/11/17 05:05:42;;;;;;;0.62;0.62;;;5.60;99.90;;;;;;4362722;32;20646;-65
2021/11/17 05:08:36;;;;;;;1.65;0.73;;;5.60;99.90;;;;;;4361397;32;20062;-65
2021/11/17 05:11:54;;;;;;;0.40;0.40;;;5.50;99.90;;;;;;4364744;32;20487;-67
2021/11/17 05:14:46;;;;;;;0.85;0.85;;;5.70;99.90;;;;;;4359218;32;20094;-66
2021/11/17 05:17:47;;;;;;;1.40;1.30;;;5.60;99.90;;;;;;4358488;32;20123;-66
2021/11/17 05:20:23;;;;;;;0.60;0.60;;;5.60;99.90;;;;;;4360130;32;20074;-65
2021/11/17 05:23:24;;;;;;;0.55;0.55;;;5.60;99.90;;;;;;4356272;32;20054;-65
2021/11/17 05:26:39;;;;;;;3.60;1.02;;;5.60;99.90;;;;;;4357207;32;20059;-66
2021/11/17 05:29:26;;;;;;;0.50;0.50;;;5.60;99.90;;;;;;4350783;32;20143;-66
2021/11/17 05:32:41;;;;;;;0.35;0.35;;;5.60;99.90;;;;;;4349004;32;20070;-66
2021/11/17 05:36:01;;;;;;;0.50;0.50;;;5.50;99.90;;;;;;4354482;32;20110;-66
2021/11/17 05:38:55;;;;;;;0.47;0.47;;;5.60;99.90;;;;;;4363197;32;20125;-66
2021/11/17 05:41:58;;;;;;;0.52;0.52;;;5.50;99.90;;;;;;4361215;32;20079;-66
2021/11/17 05:44:28;;;;;;;1.73;0.60;;;5.50;99.90;;;;;;4362472;32;20067;-66
2021/11/17 05:47:34;;;;;;;0.82;0.82;;;5.60;99.90;;;;;;4361740;32;20059;-66
2021/11/17 05:50:31;;;;;;;3.53;1.05;;;5.60;99.90;;;;;;4347940;32;20099;-66
2021/11/17 05:53:45;;;;;;;0.50;0.50;;;5.60;99.90;;;;;;4362469;32;20058;-65
2021/11/17 05:56:38;;;;;;;0.40;0.40;;;5.60;99.90;;;;;;4352854;32;20507;-66
2021/11/17 06:00:05;;;;;;;0.82;0.80;;;5.50;99.90;;;;;;4361218;32;20095;-66
2021/11/17 06:03:10;;;;;;;1.15;0.93;;;5.50;99.90;;;;;;4357227;32;20191;-66
2021/11/17 06:05:38;;;;;;;0.60;0.60;;;5.50;99.90;;;;;;4340397;32;20608;-65
2021/11/17 06:08:06;;;;;;;2.33;0.60;;;5.50;99.90;;;;;;4360553;32;20067;-65
2021/11/17 06:10:35;;;;;;;0.40;0.40;;;5.60;99.90;;;;;;4361602;32;20079;-67
2021/11/17 06:13:03;;;;;;;1.33;0.73;;;5.60;99.90;;;;;;4346248;32;20068;-66
2021/11/17 06:15:30;;;;;;;0.60;0.60;;;5.60;99.90;;;;;;4347794;32;20122;-66
2021/11/17 06:17:57;;;;;;;3.03;1.00;;;5.50;99.90;;;;;;4351978;32;20112;-66
2021/11/17 06:20:24;;;;;;;0.62;0.62;;;5.40;99.90;;;;;;4363476;32;20074;-66
2021/11/17 06:22:57;;;;;;;0.30;0.30;;;5.40;99.90;;;;;;4345621;32;20079;-66
2021/11/17 06:25:23;;;;;;;6.55;1.15;;;5.40;99.90;;;;;;4355590;32;20123;-66
2021/11/17 06:27:54;;;;;;;0.75;0.75;;;5.40;99.90;;;;;;4347212;32;20066;-66
2021/11/17 06:30:22;;;;;;;0.52;0.50;;;5.50;99.90;;;;;;4351372;32;20422;-66
2021/11/17 06:32:49;;;;;;;2.08;0.90;;;5.40;99.90;;;;;;4345800;32;20625;-66
2021/11/17 06:35:16;;;;;;;0.45;0.45;;;5.50;99.90;;;;;;4356374;32;20529;-65
2021/11/17 06:37:42;;;;;;;0.65;0.55;;;5.50;99.90;;;;;;4359819;32;20115;-66
2021/11/17 06:40:13;;;;;;;0.60;0.60;;;5.60;99.90;;;;;;4359239;32;20740;-66
2021/11/17 06:42:45;;;;;;;4.30;0.70;;;5.70;99.90;;;;;;4341115;32;20283;-68
2021/11/17 06:45:17;;;;;;;2.15;0.80;;;5.60;99.90;;;;;;4344237;32;20059;-66
2021/11/17 06:47:43;;;;;;;0.40;0.40;;;5.60;99.90;;;;;;4347226;32;20077;-66
2021/11/17 06:50:09;;;;;;;0.85;0.60;;;5.60;99.90;;;;;;4356060;32;20110;-66
2021/11/17 06:52:35;;;;;;;0.62;0.62;;;5.60;99.90;;;;;;4342926;32;20529;-66
2021/11/17 06:55:00;;;;;;;0.90;0.52;;;5.60;99.90;;;;;;4342551;32;20496;-66
2021/11/17 06:57:26;;;;;;;0.75;0.68;;;5.60;99.90;;;;;;4360421;32;20539;-66
2021/11/17 06:59:51;;;;;;;0.40;0.40;;;5.60;99.90;;;;;;4350641;32;20094;-67
2021/11/17 07:02:17;;;;;;;0.90;0.73;;;5.60;99.90;;;;;;4353452;32;20502;-66
2021/11/17 07:04:42;;;;;;;11.93;1.05;;;5.60;99.90;;;;;;4354544;32;20094;-67
2021/11/17 07:07:12;;;;;;;0.57;0.57;;;5.70;99.90;;;;;;4355833;32;20075;-66
2021/11/17 07:09:38;;;;;;;0.97;0.70;;;5.60;99.90;;;;;;4357551;32;20075;-67
2021/11/17 07:12:04;;;;;;;1.62;0.73;;;5.70;99.90;;;;;;4341922;32;21304;-65
2021/11/17 07:14:30;;;;;;;3.60;1.05;;;5.60;99.90;;;;;;4357293;32;20067;-66
2021/11/17 07:16:56;;;;;;;0.60;0.60;;;5.80;99.90;;;;;;4360327;32;20117;-66
2021/11/17 07:19:25;;;;;;;0.32;0.32;;;5.60;99.90;;;;;;4355635;32;20113;-66
2021/11/17 07:21:53;;;;;;;2.08;0.75;;;5.70;99.90;;;;;;4358012;32;20161;-66
2021/11/17 07:24:20;;;;;;;0.77;0.77;;;5.70;99.90;;;;;;4355849;32;20311;-66
2021/11/17 07:26:46;;;;;;;1.05;0.90;;;5.50;99.90;;;;;;4352118;32;20095;-66
2021/11/17 07:29:12;;;;;;;0.62;0.62;;;5.60;99.90;;;;;;4351130;32;20295;-66
2021/11/17 07:31:37;;;;;;;0.65;0.65;;;5.50;99.90;;;;;;4350275;32;20091;-66
2021/11/17 07:34:03;;;;;;;0.40;0.40;;;5.60;99.90;;;;;;4335817;32;20528;-67
2021/11/17 07:36:29;;;;;;;2.55;0.73;;;5.60;99.90;;;;;;4354866;32;20082;-66
2021/11/17 07:38:55;;;;;;;0.40;0.40;;;5.70;99.90;;;;;;4352039;32;20091;-66
2021/11/17 07:41:20;;;;;;;1.65;1.10;;;5.60;99.90;;;;;;4352259;32;20358;-66
2021/11/17 07:43:46;;;;;;;0.50;0.50;;;5.50;99.90;;;;;;4357457;32;20222;-64
2021/11/17 07:46:11;;;;;;;1.42;1.00;;;5.50;99.90;;;;;;4361195;32;20711;-64
2021/11/17 07:48:37;;;;;;;0.55;0.52;;;5.50;99.90;;;;;;4346017;32;20224;-64
2021/11/17 07:51:03;;;;;;;0.35;0.35;;;5.60;99.90;;;;;;4338197;32;20661;-65
2021/11/17 07:53:29;;;;;;;0.80;0.70;;;5.70;99.90;;;;;;4355358;32;20083;-65
2021/11/17 07:55:57;;;;;;;0.30;0.30;;;5.60;99.90;;;;;;4349729;32;20130;-65
2021/11/17 07:58:25;;;;;;;3.03;0.75;;;5.50;99.90;;;;;;4353509;32;20177;-65
2021/11/17 08:00:54;;;;;;;0.50;0.50;;;5.50;99.90;;;;;;4353004;32;20368;-65
2021/11/17 08:03:22;;;;;;;4.80;2.12;;;5.60;99.90;;;;;;4356029;32;20155;-65
2021/11/17 08:05:50;;;;;;;0.47;0.47;;;5.60;99.90;;;;;;4339770;32;20082;-65
2021/11/17 08:08:18;;;;;;;0.93;0.93;;;5.60;99.90;;;;;;4354841;32;20095;-66
2021/11/17 08:10:45;;;;;;;0.60;0.60;;;5.60;99.90;;;;;;4343737;32;20123;-65
2021/11/17 08:13:11;;;;;;;1.05;0.95;;;5.70;99.90;;;;;;4357618;32;20143;-65
2021/11/17 08:15:37;;;;;;;0.70;0.70;;;5.70;99.90;;;;;;4352485;32;20529;-65
2021/11/17 08:18:04;;;;;;;0.40;0.40;;;5.70;99.90;;;;;;4352939;32;20126;-65
2021/11/17 08:20:30;;;;;;;0.70;0.60;;;5.70;99.90;;;;;;4338537;32;20092;-65
2021/11/17 08:22:58;;;;;;;2.15;0.68;;;5.80;99.90;;;;;;4357126;32;20199;-66
2021/11/17 08:25:26;;;;;;;0.47;0.47;;;5.70;99.90;;;;;;4353479;32;20071;-66
2021/11/17 08:27:52;;;;;;;1.15;1.05;;;5.80;99.90;;;;;;4354448;32;20434;-65
2021/11/17 08:30:22;;;;;;;0.68;0.68;;;5.70;99.90;;;;;;4349963;32;20788;-66
2021/11/17 08:32:47;;;;;;;7.07;2.67;;;5.70;99.90;;;;;;4334085;32;20090;-66
2021/11/17 08:35:17;;;;;;;0.70;0.70;;;5.70;99.90;;;;;;4333759;32;20067;-66
2021/11/17 08:37:43;;;;;;;1.25;1.15;;;5.70;99.90;;;;;;4338241;32;20242;-66
2021/11/17 08:40:12;;;;;;;0.75;0.75;;;5.70;99.90;;;;;;4335792;32;20087;-66
2021/11/17 08:42:38;;;;;;;0.80;0.80;;;5.70;99.90;;;;;;4352942;32;20103;-66
2021/11/17 08:45:05;;;;;;;1.92;1.25;;;5.80;99.90;;;;;;4341319;32;20158;-66
2021/11/17 08:47:31;;;;;;;0.62;0.62;;;5.70;99.90;;;;;;4329304;32;20149;-66
2021/11/17 08:49:56;;;;;;;3.40;0.95;;;5.60;99.90;;;;;;4350637;32;20103;-66
2021/11/17 08:52:23;;;;;;;1.55;0.95;;;5.60;99.90;;;;;;4330816;32;20095;-66
2021/11/17 08:54:49;;;;;;;4.22;2.60;;;5.70;99.90;;;;;;4325923;32;20079;-65
2021/11/17 08:57:16;;;;;;;1.77;1.33;;;5.70;99.90;;;;;;4342693;32;20175;-66
2021/11/17 08:59:45;;;;;;;1.55;1.17;;;5.70;99.90;;;;;;4339070;32;20099;-65
2021/11/17 09:02:10;;;;;;;0.55;0.55;;;5.70;99.90;;;;;;4338622;32;20419;-63
2021/11/17 09:04:40;;;;;;;0.32;0.32;;;5.70;99.90;;;;;;4338062;32;20083;-65
2021/11/17 09:07:06;;;;;;;0.77;0.77;;;5.80;99.90;;;;;;4338144;32;20115;-64
2021/11/17 09:09:33;;;;;;;1.75;0.88;;;5.80;99.90;;;;;;4316881;32;20149;-64
2021/11/17 09:11:59;;;;;;;3.60;0.88;;;5.90;99.90;;;;;;4327813;32;20561;-65
2021/11/17 09:14:25;;;;;;;0.90;0.60;;;5.80;99.90;;;;;;4341137;32;20078;-65
2021/11/17 09:16:51;;;;;;;2.92;1.60;;;5.80;99.90;;;;;;4338152;32;20087;-65
2021/11/17 09:19:17;;;;;;;2.17;0.70;;;5.80;99.90;;;;;;4331861;32;20801;-65
2021/11/17 09:21:45;;;;;;;0.55;0.55;;;5.80;99.90;;;;;;4328519;32;20181;-65
2021/11/17 09:24:13;;;;;;;15.32;1.92;;;5.90;99.90;;;;;;4325190;32;20086;-65
2021/11/17 09:26:41;;;;;;;0.40;0.40;;;5.80;99.90;;;;;;4343832;32;20854;-65
2021/11/17 09:29:07;;;;;;;0.62;0.62;;;5.90;99.90;;;;;;4329176;32;20170;-65
2021/11/17 09:31:34;;;;;;;11.27;2.05;;;6.00;99.90;;;;;;4334799;32;20115;-66
2021/11/17 09:34:00;;;;;;;1.02;0.93;;;6.10;99.90;;;;;;4338951;32;20649;-63
2021/11/17 09:36:28;;;;;;;4.57;1.65;;;5.90;99.90;;;;;;4321364;32;20091;-64
2021/11/17 09:38:56;;;;;;;0.82;0.60;;;6.00;99.90;;;;;;4324574;32;20080;-64
2021/11/17 09:41:26;;;;;;;4.43;1.65;;;6.00;99.90;;;;;;4350043;32;20116;-64
2021/11/17 09:43:55;;;;;;;3.20;1.02;;;6.00;99.90;;;;;;4324688;32;20607;-64
2021/11/17 09:46:24;;;;;;;3.12;0.93;;;5.80;99.90;;;;;;4328732;32;20397;-66
2021/11/17 09:48:55;;;;;;;0.57;0.57;;;5.80;99.90;;;;;;4319096;32;20611;-64
2021/11/17 09:51:26;;;;;;;1.30;1.10;;;5.80;99.90;;;;;;4329347;32;20375;-64
2021/11/17 09:53:58;;;;;;;0.43;0.43;;;5.90;99.90;;;;;;4330963;32;20998;-64
2021/11/17 09:56:30;;;;;;;1.50;0.88;;;5.90;99.90;;;;;;4342604;32;20095;-64
2021/11/17 09:59:01;;;;;;;1.55;0.98;;;5.70;99.90;;;;;;4326045;32;20572;-64
2021/11/17 10:01:37;;;;;;;0.70;0.50;;;5.80;99.90;;;;;;4341747;32;20086;-64
2021/11/17 10:04:16;;;;;;;0.80;0.80;;;5.80;99.90;;;;;;4341795;32;20623;-64
2021/11/17 10:12:49;;;;;;;1.00;0.88;;;5.90;99.90;;;;;;4328518;32;20106;-64
2021/11/17 10:15:17;;;;;;;0.93;0.77;;;6.00;99.90;;;;;;4332507;32;20106;-64
2021/11/17 10:17:48;;;;;;;0.77;0.77;;;6.00;99.90;;;;;;4332152;32;20876;-64
2021/11/17 10:20:25;;;;;;;0.70;0.70;;;6.10;99.90;;;;;;4312353;32;20118;-64
2021/11/17 10:23:18;;;;;;;0.50;0.50;;;6.10;99.90;;;;;;4330434;32;20062;-64
2021/11/17 10:25:50;;;;;;;0.62;0.62;;;6.00;99.90;;;;;;4339227;32;20131;-65
2021/11/17 10:28:37;;;;;;;0.98;0.90;;;6.10;99.90;;;;;;4321270;32;20608;-65
2021/11/17 10:31:25;;;;;;;0.40;0.40;;;6.10;99.90;;;;;;4334796;32;20103;-65
2021/11/17 10:34:14;;;;;;;0.50;0.50;;;6.00;99.90;;;;;;4342770;32;20451;-65
2021/11/17 10:36:46;;;;;;;0.68;0.68;;;6.10;99.90;;;;;;4335930;32;20066;-65
2021/11/17 10:39:39;;;;;;;1.00;0.70;;;6.10;99.90;;;;;;4353202;32;20815;-65
2021/11/17 10:42:07;;;;;;;0.57;0.57;;;5.90;99.90;;;;;;4338983;32;20147;-65
2021/11/17 10:44:39;;;;;;;0.50;0.50;;;5.90;99.90;;;;;;4339450;32;20071;-65
2021/11/17 10:47:29;;;;;;;0.60;0.60;;;6.00;99.90;;;;;;4350671;32;20070;-65
2021/11/17 10:50:05;;;;;;;0.30;0.30;;;6.10;99.90;;;;;;4340196;32;20525;-65
2021/11/17 10:52:35;;;;;;;0.32;0.32;;;6.10;99.90;;;;;;4351608;32;20537;-65
2021/11/17 10:55:04;;;;;;;18.60;1.17;;;6.10;99.90;;;;;;4347612;32;20102;-65
2021/11/17 10:57:33;;;;;;;4.25;0.85;;;6.10;99.90;;;;;;4353747;32;20442;-64
2021/11/17 11:00:00;;;;;;;3.83;2.47;;;6.10;99.90;;;;;;4347113;32;20531;-64
2021/11/17 11:02:29;;;;;;;0.47;0.47;;;6.10;99.90;;;;;;4336633;32;20115;-64
2021/11/17 11:05:03;;;;;;;2.45;1.20;;;6.10;99.90;;;;;;4351994;32;20110;-64
2021/11/17 11:07:53;;;;;;;0.62;0.62;;;6.20;99.90;;;;;;4333753;32;20126;-65
2021/11/17 11:10:42;;;;;;;0.70;0.70;;;6.20;99.90;;;;;;4337734;32;20116;-64
2021/11/17 11:13:12;;;;;;;0.37;0.37;;;6.20;99.90;;;;;;4338769;32;20063;-64
2021/11/17 11:15:41;;;;;;;0.93;0.70;;;6.20;99.90;;;;;;4340292;32;20106;-64
2021/11/17 11:18:09;;;;;;;8.70;0.85;;;6.20;99.90;;;;;;4347344;32;20099;-64
2021/11/17 11:20:53;;;;;;;0.50;0.43;;;6.20;99.90;;;;;;4352255;32;20111;-63
2021/11/17 11:23:30;;;;;;;0.80;0.80;;;6.20;99.90;;;;;;4324400;32;20404;-64
2021/11/17 11:26:12;;;;;;;1.45;1.05;;;6.10;99.90;;;;;;4346952;32;20138;-64
2021/11/17 11:28:41;;;;;;;7.10;1.23;;;6.10;99.90;;;;;;4337340;32;20402;-65
2021/11/17 11:31:09;;;;;;;2.40;0.75;;;6.20;99.90;;;;;;4352502;32;20541;-65
2021/11/17 11:33:50;;;;;;;0.55;0.55;;;6.30;99.90;;;;;;4349963;32;20516;-64
2021/11/17 11:36:20;;;;;;;1.67;0.62;;;6.20;99.90;;;;;;4336939;32;20133;-65
2021/11/17 11:38:49;;;;;;;0.50;0.50;;;6.30;99.90;;;;;;4351893;32;20091;-65
2021/11/17 11:41:23;;;;;;;2.42;1.08;;;6.50;99.90;;;;;;4341643;32;20095;-65
2021/11/17 11:44:26;;;;;;;1.17;0.77;;;6.40;99.90;;;;;;4338720;32;20123;-65
2021/11/17 11:47:05;;;;;;;0.40;0.40;;;6.40;99.90;;;;;;4352898;32;20091;-65
2021/11/17 11:49:35;;;;;;;0.43;0.43;;;6.40;99.90;;;;;;4357782;32;20079;-65
2021/11/17 11:52:25;;;;;;;0.50;0.50;;;6.40;99.90;;;;;;4352956;32;20489;-65
2021/11/17 11:54:53;;;;;;;1.65;1.25;;;6.30;99.90;;;;;;4342194;32;20083;-65
2021/11/17 11:57:24;;;;;;;0.45;0.45;;;6.40;99.90;;;;;;4341882;32;20443;-64
2021/11/17 11:59:56;;;;;;;0.45;0.45;;;6.30;99.90;;;;;;4330968;32;20103;-64
2021/11/17 12:02:23;;;;;;;0.45;0.45;;;6.40;99.90;;;;;;4336946;32;20347;-64
2021/11/17 12:04:54;;;;;;;0.30;0.30;;;6.40;99.90;;;;;;4350330;32;20078;-65
2021/11/17 12:07:37;;;;;;;1.35;1.05;;;6.40;99.90;;;;;;4328388;32;20202;-63
2021/11/17 12:10:11;;;;;;;0.47;0.47;;;6.40;99.90;;;;;;4336802;32;20091;-64
2021/11/17 12:12:40;;;;;;;2.10;0.95;;;6.50;99.90;;;;;;4335401;32;21302;-65
2021/11/17 12:15:17;;;;;;;0.88;0.88;;;6.40;99.90;;;;;;4337586;32;20110;-65
2021/11/17 12:17:43;;;;;;;0.70;0.70;;;6.30;99.90;;;;;;4339967;32;20094;-64
2021/11/17 12:20:33;;;;;;;0.60;0.60;;;6.30;99.90;;;;;;4342640;32;20111;-65
2021/11/17 12:22:58;;;;;;;0.60;0.60;;;6.40;99.90;;;;;;4324952;32;20079;-64
2021/11/17 12:25:30;;;;;;;14.70;0.80;;;6.40;99.90;;;;;;4349377;32;20107;-64
2021/11/17 12:28:03;;;;;;;0.93;0.82;;;6.30;99.90;;;;;;4342942;32;20572;-64
2021/11/17 12:30:43;;;;;;;0.43;0.43;;;6.40;99.90;;;;;;4338125;32;20154;-64
2021/11/17 12:33:17;;;;;;;1.10;0.70;;;6.40;99.90;;;;;;4340811;32;20475;-65
2021/11/17 12:35:58;;;;;;;0.93;0.93;;;6.40;99.90;;;;;;4329702;32;20242;-64
2021/11/17 12:38:26;;;;;;;0.40;0.40;;;6.50;99.90;;;;;;4354615;32;20090;-64
2021/11/17 12:41:04;;;;;;;0.50;0.50;;;6.50;99.90;;;;;;4338793;32;21024;-64
2021/11/17 12:43:41;;;;;;;0.65;0.65;;;6.60;99.90;;;;;;4318930;32;20568;-65
2021/11/17 12:46:10;;;;;;;0.50;0.50;;;6.60;99.90;;;;;;4320139;32;20427;-64
2021/11/17 12:48:43;;;;;;;0.82;0.70;;;6.60;99.90;;;;;;4340224;32;20075;-63
2021/11/17 12:51:20;;;;;;;0.60;0.60;;;6.60;99.90;;;;;;4334700;32;21122;-65
2021/11/17 12:54:08;;;;;;;0.40;0.40;;;6.60;99.90;;;;;;4347527;32;20146;-66
2021/11/17 12:56:42;;;;;;;0.88;0.77;;;6.70;99.90;;;;;;4349658;32;20146;-65
2021/11/17 12:59:16;;;;;;;0.73;0.70;;;6.60;99.90;;;;;;4347520;32;20587;-64
2021/11/17 13:01:47;;;;;;;0.55;0.55;;;6.70;99.90;;;;;;4336930;32;20079;-65
2021/11/17 13:04:15;;;;;;;0.90;0.80;;;6.80;99.90;;;;;;4331153;32;20087;-67
2021/11/17 13:06:45;;;;;;;0.40;0.40;;;6.80;99.90;;;;;;4346716;32;20616;-66
2021/11/17 13:09:23;;;;;;;0.55;0.55;;;6.80;99.90;;;;;;4357283;32;20740;-67
2021/11/17 13:12:09;;;;;;;3.25;0.80;;;6.80;99.90;;;;;;4347092;32;20075;-65
2021/11/17 13:14:45;;;;;;;0.93;0.68;;;6.90;99.90;;;;;;4352350;32;20755;-66
2021/11/17 13:17:19;;;;;;;0.35;0.35;;;6.80;99.90;;;;;;4351612;32;20483;-67
2021/11/17 13:19:51;;;;;;;0.50;0.50;;;6.80;99.90;;;;;;4348915;32;20438;-67
2021/11/17 13:22:26;;;;;;;0.50;0.50;;;6.90;99.90;;;;;;4338762;32;20082;-66
2021/11/17 13:25:14;;;;;;;0.60;0.60;;;6.90;99.90;;;;;;4351495;32;20099;-67
2021/11/17 13:27:47;;;;;;;1.12;0.60;;;6.90;99.90;;;;;;4338835;32;20094;-67
2021/11/17 13:30:35;;;;;;;1.20;0.50;;;6.90;99.90;;;;;;4349281;32;20094;-65
2021/11/17 13:33:20;;;;;;;0.40;0.40;;;6.80;99.90;;;;;;4336224;32;20083;-67
2021/11/17 13:35:46;;;;;;;0.60;0.60;;;6.90;99.90;;;;;;4347533;32;20118;-67
2021/11/17 13:38:20;;;;;;;0.47;0.47;;;6.80;99.90;;;;;;4347396;32;20177;-67
2021/11/17 13:40:49;;;;;;;1.10;0.45;;;6.80;99.90;;;;;;4348477;32;20070;-67
2021/11/17 13:43:16;;;;;;;0.50;0.50;;;6.80;99.90;;;;;;4337247;32;20546;-68
2021/11/17 13:45:45;;;;;;;1.58;0.52;;;6.80;99.90;;;;;;4336719;32;20091;-68
2021/11/17 13:48:12;;;;;;;0.62;0.62;;;6.80;99.90;;;;;;4353088;32;20544;-68
2021/11/17 13:50:39;;;;;;;0.57;0.55;;;6.90;99.90;;;;;;4336019;32;20090;-68
2021/11/17 13:53:06;;;;;;;0.40;0.40;;;6.90;99.90;;;;;;4350794;32;20703;-67
2021/11/17 13:55:37;;;;;;;0.43;0.43;;;6.90;99.90;;;;;;4355922;32;20347;-66
2021/11/17 13:58:05;;;;;;;0.98;0.98;;;7.00;99.90;;;;;;4350886;32;20401;-65
2021/11/17 14:00:30;;;;;;;0.60;0.60;;;7.10;99.90;;;;;;4350690;32;20555;-66
2021/11/17 14:02:58;;;;;;;0.60;0.60;;;7.10;99.90;;;;;;4348080;32;20451;-66
2021/11/17 14:05:24;;;;;;;0.30;0.30;;;7.10;99.90;;;;;;4339403;32;20395;-67
2021/11/17 14:07:50;;;;;;;0.40;0.40;;;7.10;99.90;;;;;;4344206;32;20137;-65
2021/11/17 14:10:17;;;;;;;2.60;0.90;;;7.00;99.90;;;;;;4342416;32;20102;-64
2021/11/17 14:12:44;;;;;;;0.50;0.50;;;7.00;99.90;;;;;;4344195;32;20103;-64
2021/11/17 14:15:10;;;;;;;0.55;0.43;;;7.00;99.90;;;;;;4346291;32;20098;-65
2021/11/17 14:17:36;;;;;;;0.45;0.45;;;7.10;99.90;;;;;;4344473;32;20094;-65
2021/11/17 14:20:05;;;;;;;1.00;0.70;;;7.10;99.90;;;;;;4357642;32;20656;-65
2021/11/17 14:22:31;;;;;;;0.32;0.32;;;7.00;99.90;;;;;;4360967;32;20563;-65
2021/11/17 14:24:58;;;;;;;1.98;0.80;;;7.00;99.90;;;;;;4360681;32;20090;-65
2021/11/17 14:27:24;;;;;;;0.60;0.60;;;7.10;99.90;;;;;;4350196;32;20191;-65
2021/11/17 14:29:56;;;;;;;0.30;0.30;;;7.10;99.90;;;;;;4365145;32;20086;-65
2021/11/17 14:32:30;;;;;;;0.55;0.55;;;7.10;99.90;;;;;;4349862;32;20058;-65
2021/11/17 14:34:58;;;;;;;0.43;0.43;;;7.10;99.90;;;;;;4360363;32;20502;-64
2021/11/17 14:37:24;;;;;;;0.47;0.47;;;7.00;99.90;;;;;;4347512;32;20178;-64
2021/11/17 14:39:49;;;;;;;0.60;0.60;;;7.00;99.90;;;;;;4362722;32;20818;-64
2021/11/17 14:42:16;;;;;;;3.85;0.82;;;7.00;99.90;;;;;;4364624;32;20129;-65
2021/11/17 14:44:42;;;;;;;5.10;0.80;;;6.90;99.90;;;;;;4345547;32;20148;-66
2021/11/17 14:47:09;;;;;;;0.85;0.75;;;7.00;99.90;;;;;;4348274;32;20141;-66
2021/11/17 14:49:35;;;;;;;1.00;0.73;;;7.00;99.90;;;;;;4346700;32;20083;-66
2021/11/17 14:52:04;;;;;;;0.35;0.35;;;7.10;99.90;;;;;;4358458;32;20050;-66
2021/11/17 14:54:30;;;;;;;0.47;0.47;;;7.10;99.90;;;;;;4359653;32;20488;-66
2021/11/17 14:56:56;;;;;;;0.30;0.30;;;7.10;99.90;;;;;;4360452;32;20066;-66
2021/11/17 14:59:21;;;;;;;1.70;0.88;;;7.10;99.90;;;;;;4358994;32;20059;-66
2021/11/17 15:01:48;;;;;;;0.50;0.50;;;7.10;99.90;;;;;;4359693;32;20130;-66
2021/11/17 15:04:13;;;;;;;49.30;2.25;;;7.10;99.90;;;;;;4342951;32;20075;-66
2021/11/17 15:06:41;;;;;;;0.43;0.43;;;7.20;99.90;;;;;;4346726;32;20102;-66
2021/11/17 15:09:08;;;;;;;0.60;0.60;;;7.10;99.90;;;;;;4361247;32;20075;-66
2021/11/17 15:11:56;;;;;;;0.60;0.60;;;7.10;99.90;;;;;;4360385;32;20151;-66
2021/11/17 15:14:24;;;;;;;0.35;0.35;;;7.00;99.90;;;;;;4346914;32;20198;-66
2021/11/17 15:16:50;;;;;;;0.40;0.40;;;7.00;99.90;;;;;;4350577;32;20090;-66
2021/11/17 15:19:16;;;;;;;0.32;0.32;;;7.10;99.90;;;;;;4345815;32;20067;-65
2021/11/17 15:21:42;;;;;;;0.50;0.50;;;7.00;99.90;;;;;;4361675;32;20539;-65
2021/11/17 15:24:08;;;;;;;0.30;0.30;;;7.00;99.90;;;;;;4359722;32;20099;-65
2021/11/17 15:26:49;;;;;;;0.40;0.40;;;7.00;99.90;;;;;;4361163;32;20360;-66
2021/11/17 15:29:15;;;;;;;0.40;0.40;;;7.00;99.90;;;;;;4347247;32;20078;-65
2021/11/17 15:31:41;;;;;;;0.35;0.35;;;7.00;99.90;;;;;;4355157;32;20539;-66
2021/11/17 15:34:06;;;;;;;2.62;0.60;;;7.00;99.90;;;;;;4331070;32;20078;-67
2021/11/17 15:36:32;;;;;;;4.47;2.25;;;6.90;99.90;;;;;;4359030;32;20545;-65
2021/11/17 15:38:58;;;;;;;1.50;0.73;;;6.90;99.90;;;;;;4345770;32;20090;-65
2021/11/17 15:41:26;;;;;;;0.37;0.37;;;6.80;99.90;;;;;;4359288;32;20102;-65
2021/11/17 15:43:54;;;;;;;1.20;0.90;;;6.90;99.90;;;;;;4355529;32;20529;-65
2021/11/17 15:46:21;;;;;;;1.02;0.85;;;6.90;99.90;;;;;;4358821;32;20146;-65
2021/11/17 15:48:47;;;;;;;0.40;0.40;;;7.00;99.90;;;;;;4344313;32;20566;-65
2021/11/17 15:51:27;;;;;;;0.55;0.55;;;6.90;99.90;;;;;;4361182;32;20142;-65
2021/11/17 15:53:54;;;;;;;0.80;0.75;;;6.80;99.90;;;;;;4358769;32;20071;-65
2021/11/17 15:56:20;;;;;;;0.55;0.55;;;6.90;99.90;;;;;;4357414;32;20084;-65
2021/11/17 15:58:46;;;;;;;0.50;0.50;;;6.80;99.90;;;;;;4363025;32;20071;-65
2021/11/17 16:01:18;;;;;;;0.40;0.40;;;6.90;99.90;;;;;;4368690;32;20621;-66
2021/11/17 16:03:46;;;;;;;0.40;0.40;;;6.90;99.90;;;;;;4359912;32;20071;-65
2021/11/17 16:06:11;;;;;;;0.60;0.60;;;6.90;99.90;;;;;;4359878;32;20309;-65
2021/11/17 16:08:37;;;;;;;0.30;0.30;;;6.90;99.90;;;;;;4360243;32;20090;-66
2021/11/17 16:11:03;;;;;;;1.75;0.85;;;6.90;99.90;;;;;;4360328;32;20447;-65
2021/11/17 16:13:28;;;;;;;0.30;0.30;;;7.00;99.90;;;;;;4358084;32;20149;-65
2021/11/17 16:15:54;;;;;;;3.40;0.73;;;7.00;99.90;;;;;;4361799;32;20242;-65
2021/11/17 16:18:19;;;;;;;0.93;0.82;;;7.00;99.90;;;;;;4360116;32;20095;-65
2021/11/17 16:20:52;;;;;;;0.40;0.40;;;7.00;99.90;;;;;;4359870;32;20091;-65
2021/11/17 16:25:49;;;;;;;2.83;0.60;;;7.10;99.90;;;;;;4359826;32;20071;-64
2021/11/17 16:28:20;;;;;;;0.93;0.37;;;7.10;99.90;;;;;;4363436;32;20193;-65
2021/11/17 16:30:46;;;;;;;0.50;0.50;;;7.10;99.90;;;;;;4360200;32;20055;-65